Terminal Aerodrome Forecast
Issued by NWS Pueblo, CO

Home | Current Version | Previous Version | Text Only | Print | Product List | Glossary On
Versions: 1 2 3 4 5 6 7 8 9 10 11 12 13 14 15 16 17 18 19 20 21 22 23 24 25 26 27 28 29 30 31 32 33 34 35 36 37 38 39 40 41 42
958
FTUS45 KPUB 230521
TAFCOS
TAF
KCOS 230521Z 2306/2406 07007KT P6SM SCT200
     FM231600 17010KT P6SM SCT200
     FM231800 19022G35KT P6SM SCT200
     FM240200 35013KT P6SM SCT120 SCT200
     FM240400 35030G40KT P6SM -SHRA BKN050=

USA.gov is the U.S. government's official web portal to all federal, state and local government web resources and services.